Hovedside
METAR-TAF:

METAR-TAF

Lufthavner :

Ålesund lufthavn. Vigra

Ålesund, Norge

breddegrad: 62-34N, lengdegrad: 006-07E, høyde over havet: 2 m

Gjeldene værobservasjon

Denne rapporten ble laget for 24 minutter siden, klokken 03:50 UTC
Vind 13 kt fra Sørvest
Temperatur 9°C
Luftfuktighet 100%
Trykk 1016 hPa
Sikt: 6000 m
lett duskregn

METAR: ENAL 230350Z 23013KT 6000 -DZ VV012 09/09 Q1016

Tid: 06:14 (04:14 UTC)

Varsel

Denne rapporten ble laget for 2 timer og 14 minutter siden, klokken 02:00 UTC
Varsel gyldig fra 23. klokken 03 UTC til 23. klokken 12 UTC
Vind 12 kt fra Vest-sørvest
Sikt 10 km eller mer
Spredte skyer i en høyde av 500 ft
Brutte skyer i en høyde av 1200 ft
Midlertidig
fra 23. klokken 03 UTC til 23. klokken 12 UTC
Sikt: 2000 m
Brutte skyer i en høyde av 400 ft
regn, duskregn, dis

TAF: ENAL 230200Z 2303/2312 24012KT 9999 SCT005 BKN012 TEMPO 2303/2312 2000 RADZ BR BKN004

Værobservasjoner og værvarsel for over 4000 flyplasser (METAR- og TAF-rapporter).

Tilgjengelige stasjoner er representert av de røde og gule prikkene på kartet.

Hold musepekeren over prikken for å se navnet på stasjonen.

Klikk så for å se værobservasjoner og -varsler.

For å forandre kartet kan du klikke på den grønne knappen med svart kryss for å zoome inn, på den grønne knappen med strek for å zoome ut, eller på de grønne pilene for å se tilstøtende kart.


METAR-TAF: